createdAt,value
2018-12-27T00:00:01.313Z,7.2
2018-12-27T00:15:01.343Z,7.2
2018-12-27T00:30:01.350Z,7.1
2018-12-27T00:45:01.386Z,7.0
2018-12-27T01:00:01.337Z,7.0
2018-12-27T01:11:01.368Z,6.9
2018-12-27T01:26:02.265Z,6.9
2018-12-27T01:41:02.085Z,6.9
2018-12-27T01:56:02.194Z,6.9
2018-12-27T02:11:01.312Z,6.9
2018-12-27T02:26:01.350Z,6.9
2018-12-27T02:41:01.382Z,6.9
2018-12-27T02:56:01.415Z,6.9
2018-12-27T03:11:01.420Z,6.9
2018-12-27T03:26:01.338Z,6.9
2018-12-27T03:41:01.453Z,6.9
2018-12-27T03:56:01.576Z,6.9
2018-12-27T04:01:01.260Z,7.0
2018-12-27T04:16:01.339Z,7.0
2018-12-27T04:31:01.319Z,7.0
2018-12-27T04:46:01.401Z,7.0
2018-12-27T05:01:01.327Z,7.0
2018-12-27T05:16:01.351Z,7.0
2018-12-27T05:31:01.381Z,7.1
2018-12-27T05:46:01.389Z,7.1
2018-12-27T06:02:01.400Z,7.2
2018-12-27T06:17:01.452Z,7.2
2018-12-27T06:27:01.449Z,7.3
2018-12-27T06:42:01.243Z,7.3
2018-12-27T06:47:01.117Z,7.4
2018-12-27T07:02:01.390Z,7.4
2018-12-27T07:17:01.441Z,7.4
2018-12-27T07:27:01.392Z,7.5
2018-12-27T07:42:01.384Z,7.5
2018-12-27T07:57:01.396Z,7.5
2018-12-27T08:12:01.393Z,7.6
2018-12-27T08:27:01.471Z,7.6
2018-12-27T08:42:01.387Z,7.6
2018-12-27T08:57:01.398Z,7.6
2018-12-27T09:12:01.448Z,7.6
2018-12-27T09:27:01.394Z,7.6
2018-12-27T09:42:01.398Z,7.6
2018-12-27T09:52:02.511Z,7.7
2018-12-27T10:08:01.399Z,7.7
2018-12-27T10:23:01.390Z,7.7
2018-12-27T10:38:01.406Z,7.8
2018-12-27T10:54:01.359Z,7.8
2018-12-27T11:09:01.466Z,7.8
2018-12-27T11:24:01.397Z,7.8
2018-12-27T11:39:01.411Z,7.8
2018-12-27T11:54:01.400Z,7.9
2018-12-27T12:09:01.264Z,7.9
2018-12-27T12:24:01.277Z,7.9
2018-12-27T12:39:01.250Z,7.9
2018-12-27T12:54:01.358Z,7.9
2018-12-27T12:59:01.290Z,7.8
2018-12-27T13:14:01.293Z,7.8
2018-12-27T13:29:01.282Z,7.8
2018-12-27T13:44:06.293Z,7.8
2018-12-27T13:59:01.281Z,7.9
2018-12-27T14:14:01.286Z,7.9
2018-12-27T14:29:01.279Z,7.9
2018-12-27T14:44:01.263Z,7.9
2018-12-27T14:55:01.243Z,7.8
2018-12-27T15:00:01.278Z,7.8
2018-12-27T15:15:01.271Z,7.8
2018-12-27T15:20:01.255Z,7.7
2018-12-27T15:30:01.267Z,7.7
2018-12-27T15:45:01.226Z,7.6
2018-12-27T16:00:01.263Z,7.6
2018-12-27T16:05:01.256Z,7.5
2018-12-27T16:15:01.269Z,7.5
2018-12-27T16:30:01.127Z,7.5
2018-12-27T16:45:01.392Z,7.5
2018-12-27T17:00:01.520Z,7.5
2018-12-27T17:15:01.392Z,7.5
2018-12-27T17:31:01.406Z,7.5
2018-12-27T17:46:01.390Z,7.5
2018-12-27T18:01:01.313Z,7.5
2018-12-27T18:16:01.321Z,7.5
2018-12-27T18:31:01.424Z,7.5
2018-12-27T18:46:01.323Z,7.5
2018-12-27T19:01:01.645Z,7.5
2018-12-27T19:16:01.304Z,7.5
2018-12-27T19:31:01.438Z,7.5
2018-12-27T19:46:01.387Z,7.5
2018-12-27T20:02:01.372Z,7.5
2018-12-27T20:17:01.384Z,7.5
2018-12-27T20:32:01.422Z,7.5
2018-12-27T20:47:02.438Z,7.5
2018-12-27T21:02:01.381Z,7.5
2018-12-27T21:17:01.304Z,7.5
2018-12-27T21:32:01.426Z,7.5
2018-12-27T21:47:01.919Z,7.5
2018-12-27T21:52:01.379Z,7.4
2018-12-27T22:07:01.379Z,7.4
2018-12-27T22:17:01.363Z,7.3
2018-12-27T22:32:01.338Z,7.3
2018-12-27T22:47:01.383Z,7.3
2018-12-27T23:02:01.344Z,7.3
2018-12-27T23:17:01.327Z,7.3
2018-12-27T23:22:01.371Z,7.4
2018-12-27T23:37:01.387Z,7.4
2018-12-27T23:42:01.322Z,7.3
2018-12-27T23:57:01.325Z,7.3
